createdAt,value
2019-04-04T00:01:29.810Z,32.10
2019-04-04T00:03:56.890Z,29.48
2019-04-04T00:06:25.074Z,27.48
2019-04-04T00:08:52.919Z,24.72
2019-04-04T00:11:20.011Z,22.98
2019-04-04T00:13:48.174Z,21.60
2019-04-04T00:16:16.577Z,21.70
2019-04-04T00:18:44.991Z,20.15
2019-04-04T00:21:12.359Z,20.88
2019-04-04T00:23:39.849Z,20.80
2019-04-04T00:26:08.831Z,21.48
2019-04-04T00:28:36.109Z,18.52
2019-04-04T00:31:03.510Z,18.82
2019-04-04T00:33:30.451Z,15.75
2019-04-04T00:35:57.646Z,17.95
2019-04-04T00:38:24.611Z,16.57
2019-04-04T00:40:51.594Z,17.37
2019-04-04T00:43:20.736Z,16.95
2019-04-04T00:45:47.483Z,16.80
2019-04-04T00:48:14.771Z,19.62
2019-04-04T00:50:42.122Z,17.23
2019-04-04T00:53:11.808Z,16.70
2019-04-04T00:55:39.324Z,17.23
2019-04-04T00:58:06.410Z,16.30
2019-04-04T01:00:33.947Z,18.98
2019-04-04T01:03:01.399Z,15.58
2019-04-04T01:05:28.386Z,18.42
2019-04-04T01:07:55.555Z,17.07
2019-04-04T01:10:22.948Z,16.23
2019-04-04T01:12:52.207Z,16.67
2019-04-04T01:15:19.579Z,17.40
2019-04-04T01:17:46.727Z,15.78
2019-04-04T01:20:14.348Z,14.38
2019-04-04T01:22:41.535Z,14.13
2019-04-04T01:25:08.795Z,14.35
2019-04-04T01:27:37.654Z,14.25
2019-04-04T01:30:05.963Z,13.85
2019-04-04T01:32:33.728Z,13.38
2019-04-04T01:35:00.703Z,14.07
2019-04-04T01:37:27.879Z,16.48
2019-04-04T01:39:55.074Z,14.43
2019-04-04T01:42:22.086Z,14.75
2019-04-04T01:44:49.487Z,15.70
2019-04-04T01:47:16.957Z,13.68
2019-04-04T01:49:44.726Z,15.03
2019-04-04T01:52:11.802Z,13.00
2019-04-04T01:54:39.069Z,13.93
2019-04-04T01:57:08.209Z,13.88
2019-04-04T01:59:35.431Z,13.58
2019-04-04T02:02:02.701Z,14.18
2019-04-04T02:04:30.093Z,14.58
2019-04-04T02:06:59.146Z,15.32
2019-04-04T02:09:27.766Z,16.97
2019-04-04T02:11:54.978Z,14.83
2019-04-04T02:14:22.054Z,17.02
2019-04-04T02:16:51.505Z,18.02
2019-04-04T02:19:18.271Z,14.13
2019-04-04T02:21:45.402Z,16.75
2019-04-04T02:24:12.430Z,15.48
2019-04-04T02:26:39.423Z,15.13
2019-04-04T02:29:06.814Z,17.20
2019-04-04T02:31:38.003Z,15.43
2019-04-04T02:34:06.352Z,22.87
2019-04-04T02:36:33.684Z,15.90
2019-04-04T02:39:04.866Z,16.60
2019-04-04T02:41:32.338Z,15.05
2019-04-04T02:44:00.639Z,17.50
2019-04-04T02:46:27.847Z,14.98
2019-04-04T02:48:56.283Z,16.37
2019-04-04T02:51:23.744Z,15.08
2019-04-04T02:53:52.963Z,17.42
2019-04-04T02:56:20.111Z,15.18
2019-04-04T02:58:47.329Z,14.03
2019-04-04T03:01:14.620Z,14.53
2019-04-04T03:03:42.273Z,14.20
2019-04-04T03:06:09.784Z,17.15
2019-04-04T03:08:37.855Z,16.57
2019-04-04T03:11:05.147Z,17.00
2019-04-04T03:13:32.517Z,13.90
2019-04-04T03:15:59.727Z,16.67
2019-04-04T03:18:26.941Z,16.32
2019-04-04T03:20:54.574Z,15.03
2019-04-04T03:23:21.887Z,19.55
2019-04-04T03:25:49.521Z,15.95
2019-04-04T03:28:16.635Z,16.87
2019-04-04T03:30:51.777Z,15.85
2019-04-04T03:33:12.995Z,16.00
2019-04-04T03:35:39.974Z,16.65
2019-04-04T03:38:07.380Z,18.82
2019-04-04T03:40:35.609Z,17.17
2019-04-04T03:43:02.588Z,20.12
2019-04-04T03:45:30.046Z,19.15
2019-04-04T03:47:57.118Z,16.80
2019-04-04T03:50:29.160Z,20.52
2019-04-04T03:52:53.989Z,20.00
2019-04-04T03:55:20.970Z,17.50
2019-04-04T03:57:47.971Z,19.30
2019-04-04T04:00:28.576Z,18.52
2019-04-04T04:02:55.648Z,20.40
2019-04-04T04:05:25.776Z,19.42
2019-04-04T04:07:52.951Z,19.10
2019-04-04T04:10:20.401Z,22.40
2019-04-04T04:12:47.491Z,21.20
2019-04-04T04:15:14.924Z,18.90
2019-04-04T04:17:45.013Z,19.82
2019-04-04T04:20:11.547Z,20.08
2019-04-04T04:22:38.652Z,19.10
2019-04-04T04:25:05.967Z,19.60
2019-04-04T04:27:33.509Z,18.40
2019-04-04T04:30:06.111Z,18.77
2019-04-04T04:32:29.663Z,18.65
2019-04-04T04:34:57.130Z,18.48
2019-04-04T04:37:24.153Z,18.20
2019-04-04T04:39:51.232Z,17.92
2019-04-04T04:42:21.132Z,20.90
2019-04-04T04:44:47.408Z,21.85
2019-04-04T04:47:14.526Z,20.72
2019-04-04T04:49:41.811Z,20.60
2019-04-04T04:52:09.091Z,18.45
2019-04-04T04:54:38.174Z,22.02
2019-04-04T04:57:05.887Z,22.50
2019-04-04T04:59:33.343Z,20.68
2019-04-04T05:02:00.761Z,22.00
2019-04-04T05:04:28.832Z,22.73
2019-04-04T05:06:55.918Z,20.72
2019-04-04T05:09:22.978Z,22.22
2019-04-04T05:11:50.222Z,24.07
2019-04-04T05:14:17.979Z,22.67
2019-04-04T05:16:45.274Z,26.45
2019-04-04T05:19:12.341Z,25.75
2019-04-04T05:21:39.371Z,24.70
2019-04-04T05:24:06.811Z,25.77
2019-04-04T05:26:34.476Z,27.37
2019-04-04T05:29:02.471Z,23.18
2019-04-04T05:31:29.420Z,26.57
2019-04-04T05:33:58.770Z,24.92
2019-04-04T05:36:26.765Z,28.90
2019-04-04T05:38:53.950Z,25.02
2019-04-04T05:41:20.965Z,26.75
2019-04-04T05:43:48.267Z,27.60
2019-04-04T05:46:16.799Z,27.75
2019-04-04T05:48:44.751Z,26.27
2019-04-04T05:51:14.944Z,27.73
2019-04-04T05:53:42.053Z,26.65
2019-04-04T05:56:09.313Z,26.25
2019-04-04T05:58:36.645Z,25.43
2019-04-04T06:01:05.458Z,25.95
2019-04-04T06:03:33.053Z,28.95
2019-04-04T06:06:01.354Z,32.60
2019-04-04T06:08:30.083Z,32.10
2019-04-04T06:10:57.639Z,31.10
2019-04-04T06:13:24.999Z,30.08
2019-04-04T06:15:53.651Z,36.08
2019-04-04T06:18:21.214Z,34.35
2019-04-04T06:20:49.000Z,27.30
2019-04-04T06:23:16.743Z,30.25
2019-04-04T06:25:43.997Z,28.67
2019-04-04T06:28:12.010Z,29.30
2019-04-04T06:30:43.376Z,30.05
2019-04-04T06:33:09.500Z,29.35
2019-04-04T06:35:39.691Z,26.55
2019-04-04T06:38:05.908Z,26.85
2019-04-04T06:40:33.040Z,35.92
2019-04-04T06:43:03.553Z,28.67
2019-04-04T06:45:31.477Z,25.08
2019-04-04T06:47:58.703Z,27.13
2019-04-04T06:50:26.181Z,24.43
2019-04-04T06:52:56.300Z,22.00
2019-04-04T06:55:22.754Z,22.05
2019-04-04T06:57:51.341Z,22.30
2019-04-04T07:00:19.296Z,22.93
2019-04-04T07:02:47.480Z,20.43
2019-04-04T07:05:14.921Z,20.57
2019-04-04T07:07:43.891Z,20.88
2019-04-04T07:10:11.524Z,19.62
2019-04-04T07:12:39.038Z,19.23
2019-04-04T07:15:06.900Z,20.72
2019-04-04T07:17:34.125Z,16.82
2019-04-04T07:20:01.281Z,19.17
2019-04-04T07:22:28.455Z,20.40
2019-04-04T07:24:55.593Z,19.37
2019-04-04T07:27:22.742Z,21.23
2019-04-04T07:29:50.635Z,17.95
2019-04-04T07:32:17.948Z,17.52
2019-04-04T07:34:45.935Z,17.52
2019-04-04T07:37:13.252Z,20.50
2019-04-04T07:39:40.567Z,20.37
2019-04-04T07:42:08.447Z,19.60
2019-04-04T07:44:35.566Z,20.32
2019-04-04T07:47:02.748Z,18.98
2019-04-04T07:49:30.058Z,18.40
2019-04-04T07:51:57.761Z,20.65
2019-04-04T07:54:24.815Z,19.95
2019-04-04T07:56:52.397Z,18.75
2019-04-04T07:59:19.544Z,17.98
2019-04-04T08:01:51.330Z,18.25
2019-04-04T08:04:15.900Z,25.52
2019-04-04T08:06:43.004Z,16.27
2019-04-04T08:09:10.056Z,18.92
2019-04-04T08:11:37.199Z,20.27
2019-04-04T08:14:04.874Z,17.90
2019-04-04T08:16:32.156Z,18.23
2019-04-04T08:18:59.576Z,14.53
2019-04-04T08:21:27.149Z,17.00
2019-04-04T08:23:54.494Z,14.95
2019-04-04T08:26:21.628Z,16.93
2019-04-04T08:28:48.771Z,17.07
2019-04-04T08:31:16.030Z,15.83
2019-04-04T08:33:43.535Z,16.27
2019-04-04T08:36:10.655Z,19.75
2019-04-04T08:38:38.141Z,20.35
2019-04-04T08:41:05.310Z,17.92
2019-04-04T08:43:32.918Z,16.90
2019-04-04T08:46:00.238Z,20.80
2019-04-04T08:48:27.694Z,19.48
2019-04-04T08:50:55.239Z,18.73
2019-04-04T08:53:22.400Z,19.52
2019-04-04T08:55:49.668Z,18.60
2019-04-04T08:58:17.285Z,16.25
2019-04-04T09:00:44.935Z,17.10
2019-04-04T09:03:12.075Z,14.85
2019-04-04T09:05:39.130Z,14.13
2019-04-04T09:08:06.363Z,15.75
2019-04-04T09:10:34.363Z,17.55
2019-04-04T09:13:01.491Z,17.90
2019-04-04T09:15:28.595Z,16.40
2019-04-04T09:17:56.140Z,17.90
2019-04-04T09:20:23.173Z,19.80
2019-04-04T09:22:50.402Z,17.77
2019-04-04T09:25:17.575Z,18.25
2019-04-04T09:27:44.702Z,19.57
2019-04-04T09:30:15.561Z,21.48
2019-04-04T09:32:42.752Z,19.25
2019-04-04T09:35:10.092Z,20.95
2019-04-04T09:37:37.269Z,20.32
2019-04-04T09:40:05.077Z,20.72
2019-04-04T09:42:32.276Z,20.32
2019-04-04T09:44:59.897Z,15.30
2019-04-04T09:47:27.403Z,22.30
2019-04-04T09:49:54.595Z,19.80
2019-04-04T09:52:21.956Z,18.87
2019-04-04T09:54:49.188Z,19.40
2019-04-04T09:57:16.358Z,19.60
2019-04-04T09:59:43.464Z,18.82
2019-04-04T10:02:11.136Z,17.20
2019-04-04T10:04:38.317Z,21.30
2019-04-04T10:07:05.777Z,21.12
2019-04-04T10:09:34.227Z,16.20
2019-04-04T10:12:02.073Z,16.57
2019-04-04T10:14:29.294Z,20.15
2019-04-04T10:16:56.660Z,19.35
2019-04-04T10:19:24.084Z,21.07
2019-04-04T10:21:51.196Z,19.57
2019-04-04T10:24:18.584Z,18.42
2019-04-04T10:26:46.414Z,18.80
2019-04-04T10:29:13.576Z,17.80
2019-04-04T10:31:40.719Z,21.20
2019-04-04T10:34:07.844Z,23.85
2019-04-04T10:36:34.982Z,18.20
2019-04-04T10:39:04.735Z,18.00
2019-04-04T10:41:31.876Z,18.20
2019-04-04T10:43:59.085Z,15.38
2019-04-04T10:46:26.426Z,17.32
2019-04-04T10:48:53.591Z,17.23
2019-04-04T10:51:21.101Z,16.67
2019-04-04T10:53:48.521Z,16.45
2019-04-04T10:56:15.546Z,16.30
2019-04-04T10:58:42.546Z,16.23
2019-04-04T11:01:09.644Z,16.82
2019-04-04T11:03:36.716Z,17.42
2019-04-04T11:06:03.741Z,18.10
2019-04-04T11:08:30.763Z,14.87
2019-04-04T11:10:59.010Z,16.00
2019-04-04T11:13:33.307Z,16.77
2019-04-04T11:15:55.274Z,18.73
2019-04-04T11:18:22.351Z,19.20
2019-04-04T11:20:49.540Z,13.75
2019-04-04T11:23:16.719Z,24.72
2019-04-04T11:25:44.001Z,19.55
2019-04-04T11:28:11.079Z,15.70
2019-04-04T11:30:38.315Z,17.80
2019-04-04T11:33:06.546Z,17.45
2019-04-04T11:35:34.055Z,15.70
2019-04-04T11:38:01.394Z,16.32
2019-04-04T11:40:29.545Z,16.35
2019-04-04T11:42:56.655Z,17.85
2019-04-04T11:45:24.309Z,18.67
2019-04-04T11:47:51.885Z,17.23
2019-04-04T11:50:19.019Z,17.37
2019-04-04T11:52:46.349Z,17.75
2019-04-04T11:55:13.459Z,17.10
2019-04-04T11:57:40.547Z,16.97
2019-04-04T12:00:11.243Z,18.10
2019-04-04T12:02:38.295Z,18.75
2019-04-04T12:05:06.025Z,20.92
2019-04-04T12:07:33.133Z,18.23
2019-04-04T12:10:07.423Z,25.48
2019-04-04T12:12:29.634Z,19.85
2019-04-04T12:14:56.834Z,18.82
2019-04-04T12:17:24.406Z,15.80
2019-04-04T12:19:51.833Z,20.55
2019-04-04T12:22:19.084Z,20.12
2019-04-04T12:24:46.079Z,19.37
2019-04-04T12:27:13.133Z,18.87
2019-04-04T12:29:40.240Z,21.12
2019-04-04T12:32:07.551Z,20.52
2019-04-04T12:34:34.578Z,18.57
2019-04-04T12:37:01.559Z,20.25
2019-04-04T12:39:28.847Z,19.42
2019-04-04T12:41:55.838Z,21.23
2019-04-04T12:44:22.870Z,21.82
2019-04-04T12:46:50.297Z,20.57
2019-04-04T12:49:17.691Z,22.15
2019-04-04T12:51:45.107Z,31.27
2019-04-04T12:54:12.408Z,20.55
2019-04-04T12:56:39.452Z,21.60
2019-04-04T12:59:06.805Z,24.40
2019-04-04T13:01:34.261Z,23.52
2019-04-04T13:04:01.463Z,20.35
2019-04-04T13:06:28.541Z,20.90
2019-04-04T13:08:55.510Z,21.80
2019-04-04T13:11:22.566Z,19.75
2019-04-04T13:13:49.582Z,21.75
2019-04-04T13:16:16.811Z,17.35
2019-04-04T13:18:44.886Z,20.57
2019-04-04T13:21:11.951Z,19.75
2019-04-04T13:23:38.914Z,21.90
2019-04-04T13:26:06.000Z,20.05
2019-04-04T13:28:33.077Z,20.85
2019-04-04T13:31:00.207Z,20.35
2019-04-04T13:33:27.478Z,22.05
2019-04-04T13:35:54.936Z,20.82
2019-04-04T13:38:22.278Z,26.45
2019-04-04T13:40:50.321Z,19.17
2019-04-04T13:43:17.626Z,26.02
2019-04-04T13:45:45.697Z,22.85
2019-04-04T13:48:13.346Z,22.82
2019-04-04T13:50:40.462Z,20.02
2019-04-04T13:53:07.431Z,21.00
2019-04-04T13:55:34.648Z,22.30
2019-04-04T13:58:01.799Z,19.48
2019-04-04T14:00:28.844Z,23.30
2019-04-04T14:02:55.822Z,27.98
2019-04-04T14:05:23.143Z,20.55
2019-04-04T14:08:04.371Z,24.32
2019-04-04T14:10:31.851Z,18.48
2019-04-04T14:13:00.379Z,19.00
2019-04-04T14:15:27.412Z,17.50
2019-04-04T14:17:54.416Z,20.27
2019-04-04T14:20:21.389Z,19.15
2019-04-04T14:22:51.085Z,18.00
2019-04-04T14:25:17.802Z,15.72
2019-04-04T14:27:44.920Z,17.02
2019-04-04T14:30:13.814Z,16.40
2019-04-04T14:32:40.931Z,17.90
2019-04-04T14:35:08.357Z,15.98
2019-04-04T14:37:35.499Z,14.93
2019-04-04T14:40:02.731Z,16.30
2019-04-04T14:42:29.690Z,19.23
2019-04-04T14:44:56.686Z,19.62
2019-04-04T14:47:23.731Z,20.25
2019-04-04T14:49:50.741Z,17.73
2019-04-04T14:52:19.858Z,19.42
2019-04-04T14:54:46.923Z,19.30
2019-04-04T14:57:14.252Z,17.60
2019-04-04T14:59:41.667Z,17.62
2019-04-04T15:02:08.785Z,18.87
2019-04-04T15:04:35.906Z,20.00
2019-04-04T15:07:03.099Z,19.48
2019-04-04T15:09:30.346Z,17.95
2019-04-04T15:11:57.623Z,20.92
2019-04-04T15:14:31.775Z,19.80
2019-04-04T15:16:59.948Z,22.75
2019-04-04T15:19:26.997Z,20.02
2019-04-04T15:21:54.424Z,20.77
2019-04-04T15:24:21.751Z,23.90
2019-04-04T15:26:49.158Z,22.80
2019-04-04T15:29:16.241Z,22.98
2019-04-04T15:31:43.650Z,27.37
2019-04-04T15:34:10.678Z,24.10
2019-04-04T15:36:37.993Z,25.02
2019-04-04T15:39:05.823Z,22.48
2019-04-04T15:41:37.286Z,21.57
2019-04-04T15:44:03.178Z,25.15
2019-04-04T15:46:30.516Z,20.48
2019-04-04T15:48:57.881Z,21.55
2019-04-04T15:51:25.155Z,21.65
2019-04-04T15:53:52.220Z,20.65
2019-04-04T15:56:19.289Z,21.23
2019-04-04T15:58:49.020Z,20.35
2019-04-04T16:01:16.151Z,28.75
2019-04-04T16:03:43.298Z,20.92
2019-04-04T16:06:10.508Z,21.25
2019-04-04T16:08:37.480Z,20.25
2019-04-04T16:11:04.906Z,23.10
2019-04-04T16:13:32.088Z,23.52
2019-04-04T16:15:59.185Z,21.97
2019-04-04T16:18:26.465Z,25.77
2019-04-04T16:20:54.031Z,21.85
2019-04-04T16:23:21.318Z,23.10
2019-04-04T16:25:48.726Z,22.17
2019-04-04T16:28:16.155Z,22.77
2019-04-04T16:30:43.307Z,21.95
2019-04-04T16:33:10.436Z,21.97
2019-04-04T16:35:37.527Z,20.48
2019-04-04T16:38:04.980Z,21.82
2019-04-04T16:40:32.298Z,26.30
2019-04-04T16:42:59.635Z,22.17
2019-04-04T16:45:26.977Z,22.95
2019-04-04T16:47:54.076Z,18.20
2019-04-04T16:50:21.066Z,14.40
2019-04-04T16:52:48.178Z,17.20
2019-04-04T16:55:15.450Z,14.87
2019-04-04T16:57:43.417Z,15.30
2019-04-04T17:00:11.974Z,14.18
2019-04-04T17:02:39.370Z,18.15
2019-04-04T17:05:06.751Z,16.27
2019-04-04T17:07:34.088Z,16.35
2019-04-04T17:10:01.233Z,14.87
2019-04-04T17:12:28.908Z,16.20
2019-04-04T17:14:55.930Z,15.50
2019-04-04T17:17:22.934Z,13.90
2019-04-04T17:19:49.928Z,14.55
2019-04-04T17:22:16.964Z,15.55
2019-04-04T17:24:44.024Z,13.18
2019-04-04T17:27:11.514Z,17.37
2019-04-04T17:29:38.888Z,15.50
2019-04-04T17:32:06.397Z,16.62
2019-04-04T17:34:34.027Z,13.40
2019-04-04T17:37:01.451Z,16.55
2019-04-04T17:39:29.998Z,16.60
2019-04-04T17:41:57.036Z,12.78
2019-04-04T17:44:24.178Z,16.48
2019-04-04T17:46:51.700Z,17.82
2019-04-04T17:49:19.208Z,13.60
2019-04-04T17:51:46.921Z,15.40
2019-04-04T17:54:14.324Z,15.48
2019-04-04T17:56:41.467Z,14.70
2019-04-04T17:59:09.228Z,13.00
2019-04-04T18:01:36.479Z,17.32
2019-04-04T18:04:03.702Z,30.60
2019-04-04T18:06:30.736Z,13.18
2019-04-04T18:08:57.834Z,12.98
2019-04-04T18:11:25.033Z,13.98
2019-04-04T18:13:52.181Z,14.25
2019-04-04T18:16:19.212Z,15.35
2019-04-04T18:18:46.608Z,15.10
2019-04-04T18:21:13.687Z,13.98
2019-04-04T18:23:40.818Z,17.23
2019-04-04T18:26:09.020Z,14.07
2019-04-04T18:28:36.147Z,15.15
2019-04-04T18:31:03.285Z,15.60
2019-04-04T18:33:30.798Z,15.53
2019-04-04T18:35:57.982Z,16.20
2019-04-04T18:38:25.164Z,16.37
2019-04-04T18:40:52.383Z,14.35
2019-04-04T18:43:19.527Z,14.65
2019-04-04T18:45:46.523Z,13.80
2019-04-04T18:48:13.581Z,15.43
2019-04-04T18:50:43.309Z,14.05
2019-04-04T18:53:10.408Z,15.15
2019-04-04T18:55:37.442Z,14.50
2019-04-04T18:58:04.433Z,15.85
2019-04-04T19:00:31.677Z,15.50
2019-04-04T19:02:58.963Z,16.30
2019-04-04T19:05:26.166Z,16.00
2019-04-04T19:07:53.363Z,17.50
2019-04-04T19:10:20.772Z,14.83
2019-04-04T19:12:47.892Z,15.18
2019-04-04T19:15:16.189Z,15.60
2019-04-04T19:17:44.148Z,15.60
2019-04-04T19:20:14.608Z,17.10
2019-04-04T19:22:41.982Z,18.60
2019-04-04T19:25:09.406Z,18.92
2019-04-04T19:27:36.706Z,19.12
2019-04-04T19:30:05.235Z,18.82
2019-04-04T19:32:32.944Z,20.00
2019-04-04T19:35:00.145Z,19.20
2019-04-04T19:37:27.184Z,21.00
2019-04-04T19:39:54.563Z,21.77
2019-04-04T19:42:22.943Z,22.80
2019-04-04T19:44:53.665Z,20.88
2019-04-04T19:47:19.072Z,21.77
2019-04-04T19:49:46.519Z,21.37
2019-04-04T19:52:14.073Z,23.52
2019-04-04T19:54:41.148Z,22.07
2019-04-04T19:57:08.487Z,20.92
2019-04-04T19:59:35.499Z,21.23
2019-04-04T20:02:02.884Z,23.47
2019-04-04T20:04:30.152Z,22.35
2019-04-04T20:06:57.799Z,22.42
2019-04-04T20:09:25.177Z,22.50
2019-04-04T20:11:52.271Z,22.93
2019-04-04T20:14:19.695Z,22.40
2019-04-04T20:16:46.816Z,22.22
2019-04-04T20:19:15.360Z,21.73
2019-04-04T20:21:42.806Z,21.42
2019-04-04T20:24:09.975Z,22.25
2019-04-04T20:26:37.203Z,24.40
2019-04-04T20:29:04.460Z,23.95
2019-04-04T20:31:31.547Z,23.12
2019-04-04T20:34:02.022Z,23.42
2019-04-04T20:36:28.444Z,27.15
2019-04-04T20:38:55.537Z,25.05
2019-04-04T20:41:22.935Z,21.85
2019-04-04T20:43:50.557Z,26.07
2019-04-04T20:46:17.997Z,26.97
2019-04-04T20:48:46.159Z,22.05
2019-04-04T20:51:13.283Z,26.55
2019-04-04T20:53:40.575Z,23.62
2019-04-04T20:56:07.919Z,26.40
2019-04-04T20:58:35.078Z,27.67
2019-04-04T21:01:02.707Z,25.37
2019-04-04T21:03:30.113Z,27.30
2019-04-04T21:05:58.239Z,27.45
2019-04-04T21:08:25.282Z,28.23
2019-04-04T21:10:53.728Z,29.50
2019-04-04T21:13:20.904Z,29.02
2019-04-04T21:15:47.907Z,31.95
2019-04-04T21:18:14.993Z,31.65
2019-04-04T21:20:42.175Z,30.43
2019-04-04T21:23:09.329Z,29.42
2019-04-04T21:25:37.035Z,33.42
2019-04-04T21:28:04.392Z,29.25
2019-04-04T21:30:31.491Z,29.00
2019-04-04T21:32:58.511Z,29.50
2019-04-04T21:35:25.992Z,28.77
2019-04-04T21:37:53.011Z,33.18
2019-04-04T21:40:20.060Z,28.47
2019-04-04T21:42:48.307Z,38.05
2019-04-04T21:45:15.641Z,32.10
2019-04-04T21:47:42.775Z,37.23
2019-04-04T21:50:10.484Z,31.77
2019-04-04T21:52:37.479Z,32.70
2019-04-04T21:55:05.064Z,33.90
2019-04-04T21:57:32.184Z,33.58
2019-04-04T21:59:59.228Z,35.60
2019-04-04T22:02:26.995Z,32.20
2019-04-04T22:04:54.413Z,32.15
2019-04-04T22:07:21.575Z,31.02
2019-04-04T22:09:49.133Z,29.60
2019-04-04T22:12:16.309Z,32.13
2019-04-04T22:14:43.380Z,31.02
2019-04-04T22:17:11.496Z,28.90
2019-04-04T22:19:39.941Z,29.27
2019-04-04T22:22:08.710Z,26.90
2019-04-04T22:24:36.014Z,28.00
2019-04-04T22:27:06.435Z,32.70
2019-04-04T22:29:33.591Z,33.73
2019-04-04T22:32:00.729Z,27.35
2019-04-04T22:34:27.805Z,29.35
2019-04-04T22:36:55.448Z,36.60
2019-04-04T22:39:22.560Z,35.23
2019-04-04T22:41:50.461Z,36.15
2019-04-04T22:44:17.948Z,37.63
2019-04-04T22:46:46.365Z,38.90
2019-04-04T22:49:14.066Z,35.20
2019-04-04T22:51:41.192Z,39.00
2019-04-04T22:54:08.671Z,39.83
2019-04-04T22:56:35.753Z,37.83
2019-04-04T22:59:03.112Z,39.38
2019-04-04T23:01:30.269Z,39.63
2019-04-04T23:03:57.399Z,42.03
2019-04-04T23:06:24.606Z,41.55
2019-04-04T23:08:52.094Z,50.90
2019-04-04T23:11:19.162Z,44.70
2019-04-04T23:13:46.394Z,47.60
2019-04-04T23:16:14.532Z,50.73
2019-04-04T23:18:41.668Z,49.80
2019-04-04T23:21:09.234Z,52.17
2019-04-04T23:23:36.595Z,50.12
2019-04-04T23:26:03.854Z,49.23
2019-04-04T23:28:30.926Z,57.48
2019-04-04T23:30:58.174Z,55.95
2019-04-04T23:33:25.287Z,52.70
2019-04-04T23:35:52.357Z,51.42
2019-04-04T23:38:19.514Z,53.68
2019-04-04T23:40:46.988Z,55.67
2019-04-04T23:43:14.124Z,56.68
2019-04-04T23:45:41.381Z,56.25
2019-04-04T23:48:08.729Z,54.42
2019-04-04T23:50:36.244Z,54.20
2019-04-04T23:53:03.492Z,60.23
2019-04-04T23:55:32.059Z,58.28
2019-04-04T23:57:59.187Z,65.12
